sensor_id;sensor_type;location;lat;lon;timestamp;pressure;altitude;pressure_sealevel;temperature;humidity
53719;BME280;39616;48.872;9.390;2022-09-09T00:01:51;97975.56;;;13.74;100.00
53719;BME280;39616;48.872;9.390;2022-09-09T00:04:30;97977.19;;;13.67;100.00
53719;BME280;39616;48.872;9.390;2022-09-09T00:07:18;97979.13;;;13.66;100.00
53719;BME280;39616;48.872;9.390;2022-09-09T00:12:59;97982.00;;;13.70;100.00
53719;BME280;39616;48.872;9.390;2022-09-09T00:15:57;97973.00;;;13.69;100.00
53719;BME280;39616;48.872;9.390;2022-09-09T00:21:13;97969.63;;;13.72;100.00
53719;BME280;39616;48.872;9.390;2022-09-09T00:23:50;97966.59;;;13.74;100.00
53719;BME280;39616;48.872;9.390;2022-09-09T00:26:44;97972.34;;;13.72;100.00
53719;BME280;39616;48.872;9.390;2022-09-09T00:29:32;97969.63;;;13.72;100.00
53719;BME280;39616;48.872;9.390;2022-09-09T00:32:17;97969.97;;;13.71;100.00
53719;BME280;39616;48.872;9.390;2022-09-09T00:34:52;97969.16;;;13.70;100.00
53719;BME280;39616;48.872;9.390;2022-09-09T00:37:25;97962.25;;;13.73;100.00
53719;BME280;39616;48.872;9.390;2022-09-09T00:39:59;97967.22;;;13.71;100.00
53719;BME280;39616;48.872;9.390;2022-09-09T00:42:42;97965.94;;;13.68;100.00
53719;BME280;39616;48.872;9.390;2022-09-09T00:48:10;97966.59;;;13.65;100.00
53719;BME280;39616;48.872;9.390;2022-09-09T00:50:44;97961.63;;;13.67;100.00
53719;BME280;39616;48.872;9.390;2022-09-09T00:53:30;97964.34;;;13.67;100.00
53719;BME280;39616;48.872;9.390;2022-09-09T00:56:17;97967.53;;;13.69;100.00
53719;BME280;39616;48.872;9.390;2022-09-09T00:59:16;97960.34;;;13.73;100.00
53719;BME280;39616;48.872;9.390;2022-09-09T01:01:54;97964.81;;;13.78;100.00
53719;BME280;39616;48.872;9.390;2022-09-09T01:04:36;97961.88;;;13.83;100.00
53719;BME280;39616;48.872;9.390;2022-09-09T01:07:18;97957.06;;;13.89;100.00
53719;BME280;39616;48.872;9.390;2022-09-09T01:09:59;97966.66;;;13.95;100.00
53719;BME280;39616;48.872;9.390;2022-09-09T01:12:38;97968.09;;;14.01;100.00
53719;BME280;39616;48.872;9.390;2022-09-09T01:15:21;97972.19;;;14.16;100.00
53719;BME280;39616;48.872;9.390;2022-09-09T01:20:47;97958.66;;;14.79;93.12
53719;BME280;39616;48.872;9.390;2022-09-09T01:29:02;97964.69;;;15.26;88.63
53719;BME280;39616;48.872;9.390;2022-09-09T01:34:56;97958.94;;;15.40;87.45
53719;BME280;39616;48.872;9.390;2022-09-09T01:37:26;97967.22;;;15.31;87.73
53719;BME280;39616;48.872;9.390;2022-09-09T01:39:56;97959.59;;;15.25;90.22
53719;BME280;39616;48.872;9.390;2022-09-09T01:42:27;97972.97;;;15.17;89.65
53719;BME280;39616;48.872;9.390;2022-09-09T01:44:57;97973.28;;;15.16;92.01
53719;BME280;39616;48.872;9.390;2022-09-09T01:47:27;97971.38;;;15.16;90.15
53719;BME280;39616;48.872;9.390;2022-09-09T01:49:59;97976.22;;;15.32;88.16
53719;BME280;39616;48.872;9.390;2022-09-09T01:52:30;97980.13;;;15.43;85.31
53719;BME280;39616;48.872;9.390;2022-09-09T01:55:04;97976.16;;;15.53;85.34
53719;BME280;39616;48.872;9.390;2022-09-09T02:00:24;97973.28;;;15.70;83.42
53719;BME280;39616;48.872;9.390;2022-09-09T02:03:05;97960.19;;;15.76;82.12
53719;BME280;39616;48.872;9.390;2022-09-09T02:05:38;97963.88;;;15.80;82.59
53719;BME280;39616;48.872;9.390;2022-09-09T02:08:20;97963.50;;;15.81;80.99
53719;BME280;39616;48.872;9.390;2022-09-09T02:11:13;97967.97;;;15.86;81.08
53719;BME280;39616;48.872;9.390;2022-09-09T02:13:46;97963.75;;;15.88;80.58
53719;BME280;39616;48.872;9.390;2022-09-09T02:16:26;97956.09;;;15.82;80.41
53719;BME280;39616;48.872;9.390;2022-09-09T02:21:45;97950.06;;;15.76;80.95
53719;BME280;39616;48.872;9.390;2022-09-09T02:24:16;97946.97;;;15.65;82.45
53719;BME280;39616;48.872;9.390;2022-09-09T02:26:49;97956.13;;;15.61;82.21
53719;BME280;39616;48.872;9.390;2022-09-09T02:29:33;97957.97;;;15.57;82.08
53719;BME280;39616;48.872;9.390;2022-09-09T02:32:06;97962.25;;;15.45;83.75
53719;BME280;39616;48.872;9.390;2022-09-09T02:34:51;97963.28;;;15.41;83.63
53719;BME280;39616;48.872;9.390;2022-09-09T02:37:27;97978.41;;;15.38;84.05
53719;BME280;39616;48.872;9.390;2022-09-09T02:40:02;97966.41;;;15.31;84.23
53719;BME280;39616;48.872;9.390;2022-09-09T02:42:48;97969.69;;;15.24;84.88
53719;BME280;39616;48.872;9.390;2022-09-09T02:45:21;97961.72;;;15.19;85.40
53719;BME280;39616;48.872;9.390;2022-09-09T02:48:14;97962.97;;;15.21;85.12
53719;BME280;39616;48.872;9.390;2022-09-09T02:56:52;97977.63;;;15.17;86.70
53719;BME280;39616;48.872;9.390;2022-09-09T02:59:26;97977.84;;;15.12;87.17
53719;BME280;39616;48.872;9.390;2022-09-09T03:01:57;97983.50;;;15.07;87.28
53719;BME280;39616;48.872;9.390;2022-09-09T03:04:28;97980.16;;;15.01;88.13
53719;BME280;39616;48.872;9.390;2022-09-09T03:06:59;97983.56;;;14.98;88.44
53719;BME280;39616;48.872;9.390;2022-09-09T03:09:30;97974.31;;;14.90;88.48
53719;BME280;39616;48.872;9.390;2022-09-09T03:12:00;97970.59;;;14.95;87.93
53719;BME280;39616;48.872;9.390;2022-09-09T03:14:31;97967.38;;;14.93;88.79
53719;BME280;39616;48.872;9.390;2022-09-09T03:17:01;97954.88;;;14.92;88.99
53719;BME280;39616;48.872;9.390;2022-09-09T03:19:32;97962.66;;;14.81;90.05
53719;BME280;39616;48.872;9.390;2022-09-09T03:22:03;97966.50;;;14.59;91.73
53719;BME280;39616;48.872;9.390;2022-09-09T03:24:34;97956.16;;;14.44;93.34
53719;BME280;39616;48.872;9.390;2022-09-09T03:27:04;97962.78;;;14.34;95.27
53719;BME280;39616;48.872;9.390;2022-09-09T03:29:34;97964.78;;;14.25;96.41
53719;BME280;39616;48.872;9.390;2022-09-09T03:32:05;97964.94;;;14.20;97.93
53719;BME280;39616;48.872;9.390;2022-09-09T03:34:36;97967.22;;;14.09;99.51
53719;BME280;39616;48.872;9.390;2022-09-09T03:37:09;97969.16;;;14.09;99.34
53719;BME280;39616;48.872;9.390;2022-09-09T03:39:39;97967.75;;;14.02;100.00
53719;BME280;39616;48.872;9.390;2022-09-09T03:42:12;97967.75;;;14.02;99.39
53719;BME280;39616;48.872;9.390;2022-09-09T03:44:45;97966.16;;;14.01;100.00
53719;BME280;39616;48.872;9.390;2022-09-09T03:47:20;97957.31;;;14.05;100.00
53719;BME280;39616;48.872;9.390;2022-09-09T03:49:51;97965.00;;;14.11;99.09
53719;BME280;39616;48.872;9.390;2022-09-09T03:52:21;97960.63;;;14.19;98.48
53719;BME280;39616;48.872;9.390;2022-09-09T03:54:55;97950.78;;;14.26;97.48
53719;BME280;39616;48.872;9.390;2022-09-09T03:57:26;97954.41;;;14.39;95.89
53719;BME280;39616;48.872;9.390;2022-09-09T03:59:57;97954.19;;;14.53;94.57
53719;BME280;39616;48.872;9.390;2022-09-09T04:02:28;97954.31;;;14.57;94.60
53719;BME280;39616;48.872;9.390;2022-09-09T04:04:58;97962.44;;;14.65;92.99
53719;BME280;39616;48.872;9.390;2022-09-09T04:07:29;97965.50;;;14.64;92.95
53719;BME280;39616;48.872;9.390;2022-09-09T04:10:00;97963.13;;;14.62;92.55
53719;BME280;39616;48.872;9.390;2022-09-09T04:12:30;97967.66;;;14.58;92.96
53719;BME280;39616;48.872;9.390;2022-09-09T04:15:00;97973.28;;;14.53;93.22
53719;BME280;39616;48.872;9.390;2022-09-09T04:17:32;97982.13;;;14.50;92.96
53719;BME280;39616;48.872;9.390;2022-09-09T04:20:03;97980.19;;;14.50;93.83
53719;BME280;39616;48.872;9.390;2022-09-09T04:22:33;97973.78;;;14.55;92.48
53719;BME280;39616;48.872;9.390;2022-09-09T04:25:05;97975.56;;;14.51;93.42
53719;BME280;39616;48.872;9.390;2022-09-09T04:27:35;97978.88;;;14.57;93.17
53719;BME280;39616;48.872;9.390;2022-09-09T04:30:06;97985.63;;;14.59;93.44
53719;BME280;39616;48.872;9.390;2022-09-09T04:32:37;97972.44;;;14.61;92.88
53719;BME280;39616;48.872;9.390;2022-09-09T04:35:07;97974.03;;;14.62;92.48
53719;BME280;39616;48.872;9.390;2022-09-09T04:37:38;97976.28;;;14.60;93.57
53719;BME280;39616;48.872;9.390;2022-09-09T04:40:08;97973.25;;;14.62;93.09
53719;BME280;39616;48.872;9.390;2022-09-09T04:42:42;97977.56;;;14.63;93.74
53719;BME280;39616;48.872;9.390;2022-09-09T04:45:14;97982.69;;;14.64;93.00
53719;BME280;39616;48.872;9.390;2022-09-09T04:47:44;97983.63;;;14.68;92.69
53719;BME280;39616;48.872;9.390;2022-09-09T04:50:14;97988.56;;;14.75;92.15
53719;BME280;39616;48.872;9.390;2022-09-09T04:52:45;97993.84;;;14.80;92.50
53719;BME280;39616;48.872;9.390;2022-09-09T04:55:16;97984.16;;;14.83;92.06
53719;BME280;39616;48.872;9.390;2022-09-09T04:57:46;97971.31;;;14.83;92.29
53719;BME280;39616;48.872;9.390;2022-09-09T05:00:16;97979.91;;;14.94;91.52
53719;BME280;39616;48.872;9.390;2022-09-09T05:02:47;97982.06;;;14.88;92.20
53719;BME280;39616;48.872;9.390;2022-09-09T05:05:18;97992.03;;;14.84;92.95
53719;BME280;39616;48.872;9.390;2022-09-09T05:07:48;97991.91;;;14.81;92.76
53719;BME280;39616;48.872;9.390;2022-09-09T05:10:19;97999.28;;;14.80;92.19
53719;BME280;39616;48.872;9.390;2022-09-09T05:12:54;97998.69;;;14.74;93.48
53719;BME280;39616;48.872;9.390;2022-09-09T05:15:24;98006.88;;;14.74;93.91
53719;BME280;39616;48.872;9.390;2022-09-09T05:18:02;98002.53;;;14.73;94.47
53719;BME280;39616;48.872;9.390;2022-09-09T05:20:32;98001.94;;;14.68;94.78
53719;BME280;39616;48.872;9.390;2022-09-09T05:23:02;98001.53;;;14.78;93.64
53719;BME280;39616;48.872;9.390;2022-09-09T05:25:33;98009.06;;;14.81;94.31
53719;BME280;39616;48.872;9.390;2022-09-09T05:28:03;98011.94;;;14.85;94.09
53719;BME280;39616;48.872;9.390;2022-09-09T05:30:33;98004.81;;;14.92;94.29
53719;BME280;39616;48.872;9.390;2022-09-09T05:33:04;98010.69;;;15.03;93.33
53719;BME280;39616;48.872;9.390;2022-09-09T05:35:34;98011.75;;;15.11;92.24
53719;BME280;39616;48.872;9.390;2022-09-09T05:38:04;98007.66;;;15.17;91.84
53719;BME280;39616;48.872;9.390;2022-09-09T05:40:35;98007.59;;;15.26;90.83
53719;BME280;39616;48.872;9.390;2022-09-09T05:43:05;98011.75;;;15.32;91.57
53719;BME280;39616;48.872;9.390;2022-09-09T05:45:35;98012.31;;;15.37;91.73
53719;BME280;39616;48.872;9.390;2022-09-09T05:48:06;98019.50;;;15.42;90.96
53719;BME280;39616;48.872;9.390;2022-09-09T05:50:37;98020.66;;;15.41;91.02
53719;BME280;39616;48.872;9.390;2022-09-09T05:53:09;98022.72;;;15.44;89.75
53719;BME280;39616;48.872;9.390;2022-09-09T05:55:40;98021.69;;;15.49;89.26
53719;BME280;39616;48.872;9.390;2022-09-09T05:58:12;98024.69;;;15.56;88.84
53719;BME280;39616;48.872;9.390;2022-09-09T06:00:42;98029.81;;;15.57;90.75
53719;BME280;39616;48.872;9.390;2022-09-09T06:03:14;98027.91;;;15.58;89.58
53719;BME280;39616;48.872;9.390;2022-09-09T06:05:44;98025.34;;;15.53;89.75
53719;BME280;39616;48.872;9.390;2022-09-09T06:08:14;98027.53;;;15.59;89.88
53719;BME280;39616;48.872;9.390;2022-09-09T06:10:45;98031.72;;;15.65;91.71
53719;BME280;39616;48.872;9.390;2022-09-09T06:13:15;98022.13;;;15.72;90.19
53719;BME280;39616;48.872;9.390;2022-09-09T06:15:51;98023.31;;;15.83;90.21
53719;BME280;39616;48.872;9.390;2022-09-09T06:18:22;98017.63;;;15.88;90.80
53719;BME280;39616;48.872;9.390;2022-09-09T06:21:00;98027.13;;;16.03;91.40
53719;BME280;39616;48.872;9.390;2022-09-09T06:23:31;98029.06;;;16.14;86.53
53719;BME280;39616;48.872;9.390;2022-09-09T06:26:06;98021.22;;;16.25;86.17
53719;BME280;39616;48.872;9.390;2022-09-09T06:28:38;98027.59;;;16.29;85.79
53719;BME280;39616;48.872;9.390;2022-09-09T06:31:11;98020.00;;;16.35;86.54
53719;BME280;39616;48.872;9.390;2022-09-09T06:33:42;98023.06;;;16.33;85.81
53719;BME280;39616;48.872;9.390;2022-09-09T06:36:15;98014.28;;;16.40;85.84
53719;BME280;39616;48.872;9.390;2022-09-09T06:38:47;98018.59;;;16.41;86.41
53719;BME280;39616;48.872;9.390;2022-09-09T06:41:19;98024.88;;;16.41;87.33
53719;BME280;39616;48.872;9.390;2022-09-09T06:43:49;98021.91;;;16.47;86.91
53719;BME280;39616;48.872;9.390;2022-09-09T06:46:21;98020.88;;;16.51;88.82
53719;BME280;39616;48.872;9.390;2022-09-09T06:48:52;98027.97;;;16.64;87.54
53719;BME280;39616;48.872;9.390;2022-09-09T06:51:35;98024.78;;;16.75;85.98
53719;BME280;39616;48.872;9.390;2022-09-09T06:54:06;98022.38;;;16.85;85.04
53719;BME280;39616;48.872;9.390;2022-09-09T06:56:41;98026.22;;;16.97;84.44
53719;BME280;39616;48.872;9.390;2022-09-09T06:59:13;98033.44;;;17.01;83.35
53719;BME280;39616;48.872;9.390;2022-09-09T07:01:43;98032.81;;;17.08;82.44
53719;BME280;39616;48.872;9.390;2022-09-09T07:04:14;98035.44;;;17.17;82.24
53719;BME280;39616;48.872;9.390;2022-09-09T07:06:45;98041.47;;;17.22;81.51
53719;BME280;39616;48.872;9.390;2022-09-09T07:09:16;98044.09;;;17.19;82.15
53719;BME280;39616;48.872;9.390;2022-09-09T07:11:48;98042.47;;;17.30;83.13
53719;BME280;39616;48.872;9.390;2022-09-09T07:14:20;98040.13;;;17.44;80.84
53719;BME280;39616;48.872;9.390;2022-09-09T07:16:51;98034.06;;;17.51;81.56
53719;BME280;39616;48.872;9.390;2022-09-09T07:19:24;98034.88;;;17.67;80.35
53719;BME280;39616;48.872;9.390;2022-09-09T07:21:54;98037.31;;;17.69;79.70
53719;BME280;39616;48.872;9.390;2022-09-09T07:24:25;98022.53;;;17.73;79.53
53719;BME280;39616;48.872;9.390;2022-09-09T07:26:55;98033.03;;;17.83;79.63
53719;BME280;39616;48.872;9.390;2022-09-09T07:29:25;98032.16;;;17.95;79.39
53719;BME280;39616;48.872;9.390;2022-09-09T07:31:55;98022.34;;;18.10;77.89
53719;BME280;39616;48.872;9.390;2022-09-09T07:34:26;98023.94;;;18.11;78.53
53719;BME280;39616;48.872;9.390;2022-09-09T07:36:57;98030.41;;;18.34;76.86
53719;BME280;39616;48.872;9.390;2022-09-09T07:39:27;98030.31;;;18.47;75.19
53719;BME280;39616;48.872;9.390;2022-09-09T07:41:57;98037.75;;;18.46;76.25
53719;BME280;39616;48.872;9.390;2022-09-09T07:44:28;98033.84;;;18.47;75.32
53719;BME280;39616;48.872;9.390;2022-09-09T07:46:59;98035.97;;;18.54;75.00
53719;BME280;39616;48.872;9.390;2022-09-09T07:49:29;98036.66;;;18.67;74.24
53719;BME280;39616;48.872;9.390;2022-09-09T07:52:00;98035.34;;;18.76;73.81
53719;BME280;39616;48.872;9.390;2022-09-09T07:54:30;98042.81;;;18.76;75.88
53719;BME280;39616;48.872;9.390;2022-09-09T07:57:02;98040.34;;;19.06;73.86
53719;BME280;39616;48.872;9.390;2022-09-09T07:59:34;98026.75;;;19.13;71.45
53719;BME280;39616;48.872;9.390;2022-09-09T08:02:04;98040.72;;;19.04;73.05
53719;BME280;39616;48.872;9.390;2022-09-09T08:04:35;98040.97;;;19.73;71.14
53719;BME280;39616;48.872;9.390;2022-09-09T08:07:05;98042.53;;;19.94;68.67
53719;BME280;39616;48.872;9.390;2022-09-09T08:09:35;98049.19;;;19.93;69.48
53719;BME280;39616;48.872;9.390;2022-09-09T08:12:06;98051.47;;;20.10;67.21
53719;BME280;39616;48.872;9.390;2022-09-09T08:14:37;98047.91;;;19.87;68.81
53719;BME280;39616;48.872;9.390;2022-09-09T08:17:07;98046.28;;;20.28;66.77
53719;BME280;39616;48.872;9.390;2022-09-09T08:19:38;98042.13;;;20.61;65.78
53719;BME280;39616;48.872;9.390;2022-09-09T08:22:08;98041.25;;;21.06;64.11
53719;BME280;39616;48.872;9.390;2022-09-09T08:24:38;98053.97;;;21.78;61.52
53719;BME280;39616;48.872;9.390;2022-09-09T08:27:09;98041.13;;;22.30;60.96
53719;BME280;39616;48.872;9.390;2022-09-09T08:29:40;98045.03;;;22.74;58.52
53719;BME280;39616;48.872;9.390;2022-09-09T08:32:10;98043.13;;;22.81;57.92
53719;BME280;39616;48.872;9.390;2022-09-09T08:34:40;98048.19;;;23.31;56.98
53719;BME280;39616;48.872;9.390;2022-09-09T08:37:11;98045.97;;;23.65;55.43
53719;BME280;39616;48.872;9.390;2022-09-09T08:39:42;98046.44;;;23.89;54.15
53719;BME280;39616;48.872;9.390;2022-09-09T08:42:23;98048.88;;;24.15;53.93
53719;BME280;39616;48.872;9.390;2022-09-09T08:45:34;98061.88;;;23.90;53.63
53719;BME280;39616;48.872;9.390;2022-09-09T08:51:03;98053.69;;;24.40;52.74
53719;BME280;39616;48.872;9.390;2022-09-09T08:53:46;98052.50;;;24.69;51.88
53719;BME280;39616;48.872;9.390;2022-09-09T08:56:21;98057.69;;;24.53;52.21
53719;BME280;39616;48.872;9.390;2022-09-09T08:58:55;98056.06;;;24.30;52.04
53719;BME280;39616;48.872;9.390;2022-09-09T09:01:49;98044.56;;;24.28;52.89
53719;BME280;39616;48.872;9.390;2022-09-09T09:04:43;98043.38;;;24.29;53.46
53719;BME280;39616;48.872;9.390;2022-09-09T09:07:25;98053.69;;;24.82;51.84
53719;BME280;39616;48.872;9.390;2022-09-09T09:10:28;98055.28;;;24.69;52.60
53719;BME280;39616;48.872;9.390;2022-09-09T09:13:03;98058.84;;;24.77;50.94
53719;BME280;39616;48.872;9.390;2022-09-09T09:15:37;98045.28;;;25.36;51.23
53719;BME280;39616;48.872;9.390;2022-09-09T09:18:11;98042.97;;;25.20;49.36
53719;BME280;39616;48.872;9.390;2022-09-09T09:21:34;98038.59;;;24.05;52.21
53719;BME280;39616;48.872;9.390;2022-09-09T09:23:59;98034.94;;;22.96;55.59
53719;BME280;39616;48.872;9.390;2022-09-09T09:26:33;98043.09;;;23.40;55.42
53719;BME280;39616;48.872;9.390;2022-09-09T09:29:10;98035.91;;;23.25;55.38
53719;BME280;39616;48.872;9.390;2022-09-09T09:31:45;98027.31;;;23.48;55.01
53719;BME280;39616;48.872;9.390;2022-09-09T09:34:18;98025.13;;;23.02;55.29
53719;BME280;39616;48.872;9.390;2022-09-09T09:37:01;98019.72;;;22.64;57.25
53719;BME280;39616;48.872;9.390;2022-09-09T09:39:34;98018.00;;;22.08;57.54
53719;BME280;39616;48.872;9.390;2022-09-09T09:42:11;98022.19;;;21.91;58.72
53719;BME280;39616;48.872;9.390;2022-09-09T09:44:44;98029.47;;;21.69;58.76
53719;BME280;39616;48.872;9.390;2022-09-09T09:49:57;98031.84;;;21.11;57.13
53719;BME280;39616;48.872;9.390;2022-09-09T09:52:32;98036.16;;;20.82;57.39
53719;BME280;39616;48.872;9.390;2022-09-09T09:55:13;98037.38;;;20.84;57.27
53719;BME280;39616;48.872;9.390;2022-09-09T09:57:44;98025.03;;;20.74;55.56
53719;BME280;39616;48.872;9.390;2022-09-09T10:00:17;98015.03;;;20.63;55.06
53719;BME280;39616;48.872;9.390;2022-09-09T10:02:48;98001.38;;;21.30;54.66
53719;BME280;39616;48.872;9.390;2022-09-09T10:05:24;98008.66;;;22.64;49.10
53719;BME280;39616;48.872;9.390;2022-09-09T10:10:50;98006.19;;;24.48;44.54
53719;BME280;39616;48.872;9.390;2022-09-09T10:19:04;97994.69;;;24.32;43.20
53719;BME280;39616;48.872;9.390;2022-09-09T10:24:48;98001.25;;;25.42;41.54
53719;BME280;39616;48.872;9.390;2022-09-09T10:33:39;97991.91;;;24.21;41.78
53719;BME280;39616;48.872;9.390;2022-09-09T10:36:25;97992.72;;;24.54;44.24
53719;BME280;39616;48.872;9.390;2022-09-09T10:39:32;98004.16;;;24.81;42.79
53719;BME280;39616;48.872;9.390;2022-09-09T10:42:09;98000.09;;;25.32;43.04
53719;BME280;39616;48.872;9.390;2022-09-09T10:45:13;98000.97;;;25.08;43.67
53719;BME280;39616;48.872;9.390;2022-09-09T10:53:57;98004.13;;;25.20;43.18
53719;BME280;39616;48.872;9.390;2022-09-09T10:56:34;98005.38;;;24.76;44.51
53719;BME280;39616;48.872;9.390;2022-09-09T10:59:09;98003.72;;;25.15;45.01
53719;BME280;39616;48.872;9.390;2022-09-09T11:01:55;98016.38;;;23.80;46.66
53719;BME280;39616;48.872;9.390;2022-09-09T11:04:32;98005.66;;;23.64;47.64
53719;BME280;39616;48.872;9.390;2022-09-09T11:07:08;98009.38;;;23.13;49.01
53719;BME280;39616;48.872;9.390;2022-09-09T11:09:45;98007.28;;;22.40;49.85
53719;BME280;39616;48.872;9.390;2022-09-09T11:12:19;97997.13;;;22.52;50.01
53719;BME280;39616;48.872;9.390;2022-09-09T11:14:54;97990.69;;;22.92;50.24
53719;BME280;39616;48.872;9.390;2022-09-09T11:17:42;97991.03;;;23.71;48.49
53719;BME280;39616;48.872;9.390;2022-09-09T11:20:14;97984.34;;;23.68;48.94
53719;BME280;39616;48.872;9.390;2022-09-09T11:25:48;97983.44;;;23.46;48.63
53719;BME280;39616;48.872;9.390;2022-09-09T11:40:00;98036.81;;;21.02;54.58
53719;BME280;39616;48.872;9.390;2022-09-09T11:42:37;98071.41;;;18.91;62.36
53719;BME280;39616;48.872;9.390;2022-09-09T11:45:28;98080.38;;;18.72;63.01
53719;BME280;39616;48.872;9.390;2022-09-09T11:48:00;98074.47;;;17.94;64.71
53719;BME280;39616;48.872;9.390;2022-09-09T11:50:32;98089.03;;;17.42;67.09
53719;BME280;39616;48.872;9.390;2022-09-09T11:53:19;98082.97;;;17.36;69.96
53719;BME280;39616;48.872;9.390;2022-09-09T11:56:24;98086.34;;;17.18;75.97
53719;BME280;39616;48.872;9.390;2022-09-09T11:59:19;98107.94;;;16.82;80.70
53719;BME280;39616;48.872;9.390;2022-09-09T12:02:13;98101.78;;;16.98;85.16
53719;BME280;39616;48.872;9.390;2022-09-09T12:04:54;98097.47;;;17.37;81.67
53719;BME280;39616;48.872;9.390;2022-09-09T12:07:56;98078.41;;;17.81;78.08
53719;BME280;39616;48.872;9.390;2022-09-09T12:10:40;98064.72;;;17.97;74.50
53719;BME280;39616;48.872;9.390;2022-09-09T12:13:21;98066.09;;;18.50;72.98
53719;BME280;39616;48.872;9.390;2022-09-09T12:15:56;98057.81;;;18.98;70.91
53719;BME280;39616;48.872;9.390;2022-09-09T12:18:38;98041.41;;;19.75;66.14
53719;BME280;39616;48.872;9.390;2022-09-09T12:21:19;98036.50;;;20.08;64.67
53719;BME280;39616;48.872;9.390;2022-09-09T12:24:00;98023.13;;;20.52;61.32
53719;BME280;39616;48.872;9.390;2022-09-09T12:29:44;98030.00;;;20.42;58.72
53719;BME280;39616;48.872;9.390;2022-09-09T12:32:22;98034.53;;;20.31;58.51
53719;BME280;39616;48.872;9.390;2022-09-09T12:35:03;98031.53;;;20.17;58.65
53719;BME280;39616;48.872;9.390;2022-09-09T12:37:51;98037.59;;;20.03;58.42
53719;BME280;39616;48.872;9.390;2022-09-09T12:40:32;98035.53;;;19.77;58.86
53719;BME280;39616;48.872;9.390;2022-09-09T12:43:19;98030.66;;;20.36;57.96
53719;BME280;39616;48.872;9.390;2022-09-09T12:45:54;98020.19;;;20.68;57.42
53719;BME280;39616;48.872;9.390;2022-09-09T12:48:34;98016.19;;;21.18;55.03
53719;BME280;39616;48.872;9.390;2022-09-09T12:51:17;98012.03;;;20.75;51.77
53719;BME280;39616;48.872;9.390;2022-09-09T12:53:48;98009.78;;;21.11;53.36
53719;BME280;39616;48.872;9.390;2022-09-09T12:56:25;98020.28;;;21.02;53.98
53719;BME280;39616;48.872;9.390;2022-09-09T12:58:59;98009.94;;;21.21;54.71
53719;BME280;39616;48.872;9.390;2022-09-09T13:01:32;98006.91;;;20.73;53.59
53719;BME280;39616;48.872;9.390;2022-09-09T13:04:20;97997.22;;;21.13;54.27
53719;BME280;39616;48.872;9.390;2022-09-09T13:06:50;97997.69;;;20.89;54.66
53719;BME280;39616;48.872;9.390;2022-09-09T13:09:22;97990.84;;;20.79;53.08
53719;BME280;39616;48.872;9.390;2022-09-09T13:11:55;97991.28;;;20.81;53.33
53719;BME280;39616;48.872;9.390;2022-09-09T13:14:32;97986.34;;;20.67;54.72
53719;BME280;39616;48.872;9.390;2022-09-09T13:17:06;97982.41;;;20.42;55.32
53719;BME280;39616;48.872;9.390;2022-09-09T13:19:37;97987.72;;;20.54;56.00
53719;BME280;39616;48.872;9.390;2022-09-09T13:22:14;97980.56;;;20.49;55.28
53719;BME280;39616;48.872;9.390;2022-09-09T13:24:44;97984.22;;;20.57;54.19
53719;BME280;39616;48.872;9.390;2022-09-09T13:27:41;97976.22;;;20.75;53.44
53719;BME280;39616;48.872;9.390;2022-09-09T13:30:28;97982.31;;;20.88;55.41
53719;BME280;39616;48.872;9.390;2022-09-09T13:33:03;97972.66;;;21.01;53.76
53719;BME280;39616;48.872;9.390;2022-09-09T13:35:34;97975.09;;;21.06;54.29
53719;BME280;39616;48.872;9.390;2022-09-09T13:38:08;97972.78;;;21.12;52.74
53719;BME280;39616;48.872;9.390;2022-09-09T13:40:53;97970.81;;;20.82;54.46
53719;BME280;39616;48.872;9.390;2022-09-09T13:43:26;97982.47;;;20.72;55.33
53719;BME280;39616;48.872;9.390;2022-09-09T13:45:59;97969.22;;;20.51;55.53
53719;BME280;39616;48.872;9.390;2022-09-09T13:48:30;97973.38;;;20.68;57.06
53719;BME280;39616;48.872;9.390;2022-09-09T13:51:03;97964.88;;;20.80;56.39
53719;BME280;39616;48.872;9.390;2022-09-09T13:53:37;97957.22;;;20.96;54.97
53719;BME280;39616;48.872;9.390;2022-09-09T13:56:07;97955.69;;;20.99;54.86
53719;BME280;39616;48.872;9.390;2022-09-09T13:58:38;97945.66;;;21.48;54.04
53719;BME280;39616;48.872;9.390;2022-09-09T14:01:09;97943.25;;;21.46;55.37
53719;BME280;39616;48.872;9.390;2022-09-09T14:03:44;97941.91;;;21.66;52.95
53719;BME280;39616;48.872;9.390;2022-09-09T14:06:14;97942.94;;;21.51;52.59
53719;BME280;39616;48.872;9.390;2022-09-09T14:08:45;97940.97;;;21.52;51.41
53719;BME280;39616;48.872;9.390;2022-09-09T14:11:16;97939.72;;;21.45;51.99
53719;BME280;39616;48.872;9.390;2022-09-09T14:13:47;97945.84;;;21.32;50.83
53719;BME280;39616;48.872;9.390;2022-09-09T14:16:19;97942.81;;;21.40;51.06
53719;BME280;39616;48.872;9.390;2022-09-09T14:18:51;97940.53;;;21.50;50.83
53719;BME280;39616;48.872;9.390;2022-09-09T14:21:22;97947.16;;;21.41;50.92
53719;BME280;39616;48.872;9.390;2022-09-09T14:23:52;97951.50;;;21.42;51.47
53719;BME280;39616;48.872;9.390;2022-09-09T14:26:25;97943.31;;;21.50;50.79
53719;BME280;39616;48.872;9.390;2022-09-09T14:28:56;97945.38;;;21.60;50.47
53719;BME280;39616;48.872;9.390;2022-09-09T14:31:26;97944.72;;;21.70;51.32
53719;BME280;39616;48.872;9.390;2022-09-09T14:33:57;97938.84;;;21.75;49.95
53719;BME280;39616;48.872;9.390;2022-09-09T14:36:27;97929.28;;;22.06;49.69
53719;BME280;39616;48.872;9.390;2022-09-09T14:38:57;97931.16;;;22.43;48.07
53719;BME280;39616;48.872;9.390;2022-09-09T14:41:28;97927.03;;;22.81;46.85
53719;BME280;39616;48.872;9.390;2022-09-09T14:43:59;97931.53;;;23.07;47.66
53719;BME280;39616;48.872;9.390;2022-09-09T14:46:30;97931.53;;;23.11;46.11
53719;BME280;39616;48.872;9.390;2022-09-09T14:51:31;97927.19;;;22.40;46.65
53719;BME280;39616;48.872;9.390;2022-09-09T14:54:02;97915.03;;;22.56;45.45
53719;BME280;39616;48.872;9.390;2022-09-09T14:56:33;97931.22;;;22.54;45.35
53719;BME280;39616;48.872;9.390;2022-09-09T14:59:09;97929.72;;;22.71;44.82
53719;BME280;39616;48.872;9.390;2022-09-09T15:01:40;97923.00;;;22.72;43.78
53719;BME280;39616;48.872;9.390;2022-09-09T15:04:12;97933.63;;;22.62;44.78